Time;durP1;ratioP1;P1;durP2;ratioP2;P2;SDS_P1;SDS_P2;PMS_P1;PMS_P2;Temp;Humidity;BMP_temperature;BMP_pressure;BME280_temperature;BME280_humidity;BME280_pressure;Samples;Min_cycle;Max_cycle;Signal;HPM_P1;HPM_P2
2023/03/02 00:02:05;;;;;;;;;;;0.00;99.90;;;;;;5097465;28;19908;-75
2023/03/02 00:04:32;;;;;;;;;;;0.00;99.90;;;;;;5097155;28;19912;-75
2023/03/02 00:07:00;;;;;;;;;;;0.00;99.90;;;;;;5097096;28;20402;-76
2023/03/02 00:09:27;;;;;;;;;;;0.10;99.90;;;;;;5097174;28;19931;-75
2023/03/02 00:11:52;;;;;;;;;;;0.00;99.90;;;;;;5097680;28;19912;-76
2023/03/02 00:14:18;;;;;;;;;;;0.00;99.90;;;;;;5096970;28;20405;-76
2023/03/02 00:16:43;;;;;;;;;;;0.00;99.90;;;;;;5096893;28;19912;-75
2023/03/02 00:19:09;;;;;;;;;;;0.10;99.90;;;;;;5079024;28;20329;-76
2023/03/02 00:21:35;;;;;;;;;;;0.00;99.90;;;;;;5096937;28;19912;-76
2023/03/02 00:24:00;;;;;;;;;;;0.00;99.90;;;;;;5096964;28;20326;-75
2023/03/02 00:26:26;;;;;;;;;;;0.00;99.90;;;;;;5096829;28;19919;-75
2023/03/02 00:28:51;;;;;;;;;;;0.10;99.90;;;;;;5062114;28;19913;-76
2023/03/02 00:31:17;;;;;;;;;;;0.00;99.90;;;;;;5097442;28;20002;-76
2023/03/02 00:33:42;;;;;;;;;;;0.10;99.90;;;;;;5096493;28;19972;-76
2023/03/02 00:36:18;;;;;;;;;;;0.00;99.90;;;;;;5096747;28;19977;-76
2023/03/02 00:38:43;;;;;;;;;;;0.00;99.90;;;;;;5097041;28;19915;-76
2023/03/02 00:41:10;;;;;;;;;;;0.00;99.90;;;;;;5097194;28;19912;-76
2023/03/02 00:43:35;;;;;;;;;;;-0.10;99.90;;;;;;5096980;28;19912;-76
2023/03/02 00:46:07;;;;;;;;;;;-0.10;99.90;;;;;;5096516;28;20003;-75
2023/03/02 00:48:32;;;;;;;;;;;0.00;99.90;;;;;;5096395;28;20371;-76
2023/03/02 00:50:59;;;;;;;;;;;0.00;99.90;;;;;;5096762;28;19966;-76
2023/03/02 00:53:25;;;;;;;;;;;-0.10;99.90;;;;;;5096421;28;19908;-76
2023/03/02 00:55:54;;;;;;;;;;;-0.10;99.90;;;;;;5096214;28;19913;-75
2023/03/02 00:58:22;;;;;;;;;;;-0.10;99.90;;;;;;5096350;28;19981;-76
2023/03/02 01:00:48;;;;;;;;;;;0.00;99.90;;;;;;5096565;28;19908;-76
2023/03/02 01:03:14;;;;;;;;;;;0.00;99.90;;;;;;5095189;28;19916;-75
2023/03/02 01:05:39;;;;;;;;;;;0.10;99.90;;;;;;5096050;28;19912;-75
2023/03/02 01:08:05;;;;;;;;;;;0.20;99.90;;;;;;5096349;28;19908;-76
2023/03/02 01:10:31;;;;;;;;;;;0.20;99.90;;;;;;5078106;28;19912;-75
2023/03/02 01:12:57;;;;;;;;;;;0.20;99.90;;;;;;5095941;28;20011;-76
2023/03/02 01:15:22;;;;;;;;;;;0.30;99.90;;;;;;5095908;28;19947;-76
2023/03/02 01:17:48;;;;;;;;;;;0.30;99.90;;;;;;5095480;28;19912;-76
2023/03/02 01:20:14;;;;;;;;;;;0.40;99.90;;;;;;5077713;28;19948;-75
2023/03/02 01:22:39;;;;;;;;;;;0.40;99.90;;;;;;5095712;28;20337;-75
2023/03/02 01:25:05;;;;;;;;;;;0.40;99.90;;;;;;5095874;28;19923;-75
2023/03/02 01:27:31;;;;;;;;;;;0.40;99.90;;;;;;5095526;28;19908;-75
2023/03/02 01:29:56;;;;;;;;;;;0.50;99.90;;;;;;5095511;28;20061;-75
2023/03/02 01:32:22;;;;;;;;;;;0.50;99.90;;;;;;5095508;28;19919;-75
2023/03/02 01:34:48;;;;;;;;;;;0.50;99.90;;;;;;5095645;28;19912;-75
2023/03/02 01:37:13;;;;;;;;;;;0.50;99.90;;;;;;5095696;28;19923;-75
2023/03/02 01:39:39;;;;;;;;;;;0.50;99.90;;;;;;5095514;28;19948;-75
2023/03/02 01:42:04;;;;;;;;;;;0.50;99.90;;;;;;5077143;28;19912;-75
2023/03/02 01:44:34;;;;;;;;;;;0.50;99.90;;;;;;5095550;28;19920;-75
2023/03/02 01:47:01;;;;;;;;;;;0.50;99.90;;;;;;5077018;28;19958;-75
2023/03/02 01:49:26;;;;;;;;;;;0.40;99.90;;;;;;5095098;28;19961;-75
2023/03/02 01:51:52;;;;;;;;;;;0.40;99.90;;;;;;5095297;28;19912;-75
2023/03/02 01:54:22;;;;;;;;;;;0.40;99.90;;;;;;5095104;28;20287;-75
2023/03/02 01:56:52;;;;;;;;;;;0.40;99.90;;;;;;5095056;28;19912;-75
2023/03/02 01:59:19;;;;;;;;;;;0.30;99.90;;;;;;5095366;28;19927;-75
2023/03/02 02:01:49;;;;;;;;;;;0.20;99.90;;;;;;5095015;28;19950;-75
2023/03/02 02:04:15;;;;;;;;;;;0.20;99.90;;;;;;5093587;28;19916;-75
2023/03/02 02:06:43;;;;;;;;;;;0.10;99.90;;;;;;5094828;28;19912;-76
2023/03/02 02:09:10;;;;;;;;;;;0.10;99.90;;;;;;5094753;28;19912;-75
2023/03/02 02:11:36;;;;;;;;;;;0.10;99.90;;;;;;5093821;28;19914;-75
2023/03/02 02:14:02;;;;;;;;;;;0.10;99.90;;;;;;5094136;28;20282;-75
2023/03/02 02:16:30;;;;;;;;;;;0.10;99.90;;;;;;5094456;28;19914;-75
2023/03/02 02:18:55;;;;;;;;;;;0.10;99.90;;;;;;5094171;28;19915;-75
2023/03/02 02:21:22;;;;;;;;;;;0.10;99.90;;;;;;5094977;28;19909;-76
2023/03/02 02:23:52;;;;;;;;;;;0.10;99.90;;;;;;5094291;28;20364;-76
2023/03/02 02:26:23;;;;;;;;;;;0.10;99.90;;;;;;5093268;28;19997;-76
2023/03/02 02:29:00;;;;;;;;;;;0.00;99.90;;;;;;5094266;28;19908;-75
2023/03/02 02:31:26;;;;;;;;;;;0.00;99.90;;;;;;5094193;28;19908;-76
2023/03/02 02:33:53;;;;;;;;;;;0.00;99.90;;;;;;5093884;28;19908;-76
2023/03/02 02:36:21;;;;;;;;;;;-0.10;99.90;;;;;;5093996;28;20318;-76
2023/03/02 02:38:49;;;;;;;;;;;-0.20;99.90;;;;;;5094126;28;19944;-76
2023/03/02 02:41:18;;;;;;;;;;;-0.20;99.90;;;;;;5093538;28;19919;-76
2023/03/02 02:43:43;;;;;;;;;;;-0.20;99.90;;;;;;5075935;28;20002;-76
2023/03/02 02:46:10;;;;;;;;;;;-0.20;99.90;;;;;;5094376;28;19998;-76
2023/03/02 02:48:36;;;;;;;;;;;-0.10;99.90;;;;;;5076013;28;19912;-76
2023/03/02 02:51:02;;;;;;;;;;;-0.20;99.90;;;;;;5094125;28;20453;-76
2023/03/02 02:53:29;;;;;;;;;;;-0.30;99.90;;;;;;5094056;28;20061;-76
2023/03/02 02:55:56;;;;;;;;;;;-0.30;99.90;;;;;;5093908;28;19961;-77
2023/03/02 02:58:29;;;;;;;;;;;-0.30;99.90;;;;;;5094040;28;20000;-76
2023/03/02 03:00:55;;;;;;;;;;;-0.30;99.90;;;;;;5094471;28;19908;-76
2023/03/02 03:03:39;;;;;;;;;;;-0.30;99.90;;;;;;5075589;28;19961;-76
2023/03/02 03:06:07;;;;;;;;;;;-0.30;99.90;;;;;;5094445;28;19973;-76
2023/03/02 03:08:47;;;;;;;;;;;-0.20;99.90;;;;;;5094119;28;20387;-77
2023/03/02 03:11:18;;;;;;;;;;;-0.20;99.90;;;;;;5093871;28;19955;-76
2023/03/02 03:13:45;;;;;;;;;;;-0.30;99.90;;;;;;5094410;28;19934;-77
2023/03/02 03:16:13;;;;;;;;;;;-0.30;99.90;;;;;;5093713;28;19908;-77
2023/03/02 03:18:41;;;;;;;;;;;-0.30;99.90;;;;;;5093458;28;19912;-76
2023/03/02 03:21:06;;;;;;;;;;;-0.30;99.90;;;;;;5075657;28;19909;-76
2023/03/02 03:23:37;;;;;;;;;;;-0.30;99.90;;;;;;5075474;28;19938;-76
2023/03/02 03:26:05;;;;;;;;;;;-0.20;99.90;;;;;;5095437;28;19966;-76
2023/03/02 03:28:32;;;;;;;;;;;-0.20;99.90;;;;;;5097993;28;19917;-76
2023/03/02 03:30:57;;;;;;;;;;;-0.30;99.90;;;;;;5097814;28;19912;-76
2023/03/02 03:33:23;;;;;;;;;;;-0.30;99.90;;;;;;5097900;28;20050;-76
2023/03/02 03:35:48;;;;;;;;;;;-0.30;99.90;;;;;;5097895;28;19969;-76
2023/03/02 03:38:15;;;;;;;;;;;-0.30;99.90;;;;;;5097633;28;19919;-76
2023/03/02 03:40:40;;;;;;;;;;;-0.30;99.90;;;;;;5097964;28;20371;-76
2023/03/02 03:43:06;;;;;;;;;;;-0.30;99.90;;;;;;5098144;28;19978;-76
2023/03/02 03:45:31;;;;;;;;;;;-0.30;99.90;;;;;;5097390;28;20376;-76
2023/03/02 03:47:57;;;;;;;;;;;-0.30;99.90;;;;;;5097911;28;20399;-76
2023/03/02 03:50:23;;;;;;;;;;;-0.30;99.90;;;;;;5062526;28;19912;-76
2023/03/02 03:52:48;;;;;;;;;;;-0.30;99.90;;;;;;5097357;28;19912;-76
2023/03/02 03:55:14;;;;;;;;;;;-0.40;99.90;;;;;;5097240;28;20287;-76
2023/03/02 03:57:40;;;;;;;;;;;-0.40;99.90;;;;;;5097125;28;19927;-76
2023/03/02 04:00:07;;;;;;;;;;;-0.40;99.90;;;;;;5097148;28;19913;-76
2023/03/02 04:02:32;;;;;;;;;;;-0.40;99.90;;;;;;5097512;28;19908;-76
2023/03/02 04:05:05;;;;;;;;;;;-0.50;99.90;;;;;;5096819;28;20283;-76
2023/03/02 04:07:31;;;;;;;;;;;-0.50;99.90;;;;;;5097383;28;19920;-76
2023/03/02 04:10:02;;;;;;;;;;;-0.50;99.90;;;;;;5097010;28;19919;-76
2023/03/02 04:12:36;;;;;;;;;;;-0.50;99.90;;;;;;5097218;28;19912;-76
2023/03/02 04:15:02;;;;;;;;;;;-0.50;99.90;;;;;;5096956;28;19915;-76
2023/03/02 04:17:28;;;;;;;;;;;-0.50;99.90;;;;;;5096548;28;19913;-76
2023/03/02 04:19:53;;;;;;;;;;;-0.40;99.90;;;;;;5096683;28;19914;-77
2023/03/02 04:22:19;;;;;;;;;;;-0.40;99.90;;;;;;5096541;28;19908;-76
2023/03/02 04:24:45;;;;;;;;;;;-0.40;99.90;;;;;;5096755;28;19912;-77
2023/03/02 04:27:12;;;;;;;;;;;-0.40;99.90;;;;;;5096102;28;19962;-76
2023/03/02 04:29:37;;;;;;;;;;;-0.40;99.90;;;;;;5096385;28;19909;-76
2023/03/02 04:32:03;;;;;;;;;;;-0.40;99.90;;;;;;5096597;28;19930;-76
2023/03/02 04:34:29;;;;;;;;;;;-0.40;99.90;;;;;;5096271;28;19908;-76
2023/03/02 04:36:54;;;;;;;;;;;-0.40;99.90;;;;;;5096340;28;19916;-76
2023/03/02 04:39:20;;;;;;;;;;;-0.40;99.90;;;;;;5095936;28;19912;-77
2023/03/02 04:41:47;;;;;;;;;;;-0.40;99.90;;;;;;5096401;28;19912;-76
2023/03/02 04:44:13;;;;;;;;;;;-0.50;99.90;;;;;;5072149;28;19966;-76
2023/03/02 04:46:39;;;;;;;;;;;-0.50;99.90;;;;;;5085858;28;19921;-77
2023/03/02 04:49:05;;;;;;;;;;;-0.50;99.90;;;;;;5076004;28;19996;-76
2023/03/02 04:51:32;;;;;;;;;;;-0.50;99.90;;;;;;5076107;28;19908;-76
2023/03/02 04:54:01;;;;;;;;;;;-0.50;99.90;;;;;;5075997;28;19909;-76
2023/03/02 04:56:27;;;;;;;;;;;-0.50;99.90;;;;;;5075894;28;19909;-77
2023/03/02 04:58:53;;;;;;;;;;;-0.50;99.90;;;;;;5092162;28;20299;-77
2023/03/02 05:01:19;;;;;;;;;;;-0.50;99.90;;;;;;5096261;28;19908;-77
2023/03/02 05:03:45;;;;;;;;;;;-0.60;99.90;;;;;;5095447;28;19931;-77
2023/03/02 05:06:11;;;;;;;;;;;-0.60;99.90;;;;;;5096043;28;20437;-77
2023/03/02 05:08:36;;;;;;;;;;;-0.60;99.90;;;;;;5095921;28;19916;-77
2023/03/02 05:11:03;;;;;;;;;;;-0.60;99.90;;;;;;5095869;28;19912;-77
2023/03/02 05:13:28;;;;;;;;;;;-0.60;99.90;;;;;;5077764;28;19962;-76
2023/03/02 05:15:56;;;;;;;;;;;-0.50;99.90;;;;;;5077673;28;20307;-76
2023/03/02 05:18:22;;;;;;;;;;;-0.50;99.90;;;;;;5095776;28;19962;-76
2023/03/02 05:20:49;;;;;;;;;;;-0.50;99.90;;;;;;5095721;28;20257;-76
2023/03/02 05:23:22;;;;;;;;;;;-0.50;99.90;;;;;;5095685;28;19916;-76
2023/03/02 05:25:51;;;;;;;;;;;-0.50;99.90;;;;;;5095711;28;19912;-76
2023/03/02 05:28:18;;;;;;;;;;;-0.50;99.90;;;;;;5095631;28;19915;-76
2023/03/02 05:30:44;;;;;;;;;;;-0.50;99.90;;;;;;5095656;28;20280;-76
2023/03/02 05:33:09;;;;;;;;;;;-0.50;99.90;;;;;;5094778;28;19916;-76
2023/03/02 05:35:35;;;;;;;;;;;-0.60;99.90;;;;;;5095702;28;19908;-77
2023/03/02 05:38:00;;;;;;;;;;;-0.60;99.90;;;;;;5095412;28;19919;-77
2023/03/02 05:40:26;;;;;;;;;;;-0.70;99.90;;;;;;5095407;28;19943;-77
2023/03/02 05:42:52;;;;;;;;;;;-0.80;99.90;;;;;;5095561;28;20287;-77
2023/03/02 05:45:28;;;;;;;;;;;-0.90;99.90;;;;;;5095388;28;19916;-77
2023/03/02 05:47:54;;;;;;;;;;;-1.00;99.90;;;;;;5094670;28;19915;-77
2023/03/02 05:50:20;;;;;;;;;;;-1.00;99.90;;;;;;5094881;28;20368;-77
2023/03/02 05:52:46;;;;;;;;;;;-1.10;99.90;;;;;;5095093;28;20272;-77
2023/03/02 05:55:12;;;;;;;;;;;-1.10;99.90;;;;;;5095051;28;20304;-76
2023/03/02 05:57:38;;;;;;;;;;;-1.00;99.90;;;;;;5094726;28;19923;-76
2023/03/02 06:00:04;;;;;;;;;;;-1.00;99.90;;;;;;5095298;28;19913;-77
2023/03/02 06:02:30;;;;;;;;;;;-1.00;99.90;;;;;;5093270;28;19912;-76
2023/03/02 06:04:56;;;;;;;;;;;-1.00;99.90;;;;;;5092451;28;19916;-76
2023/03/02 06:07:21;;;;;;;;;;;-1.00;99.90;;;;;;5093364;28;19920;-76
2023/03/02 06:09:47;;;;;;;;;;;-1.00;99.90;;;;;;5092868;28;19912;-76
2023/03/02 06:12:12;;;;;;;;;;;-1.00;99.90;;;;;;5092668;28;19913;-76
2023/03/02 06:14:38;;;;;;;;;;;-1.00;99.90;;;;;;5093432;28;20007;-76
2023/03/02 06:17:03;;;;;;;;;;;-1.00;99.90;;;;;;5094020;28;19916;-77
2023/03/02 06:19:29;;;;;;;;;;;-0.90;99.90;;;;;;5094411;28;19919;-77
2023/03/02 06:21:54;;;;;;;;;;;-0.90;99.90;;;;;;5095213;28;20007;-76
2023/03/02 06:24:20;;;;;;;;;;;-0.90;99.90;;;;;;5094560;28;20311;-76
2023/03/02 06:26:46;;;;;;;;;;;-0.90;99.90;;;;;;5076262;28;19912;-76
2023/03/02 06:29:14;;;;;;;;;;;-1.00;99.90;;;;;;5094419;28;19912;-76
2023/03/02 06:31:40;;;;;;;;;;;-1.00;99.90;;;;;;5094682;28;19912;-76
2023/03/02 06:34:05;;;;;;;;;;;-1.10;99.90;;;;;;5094328;28;19998;-76
2023/03/02 06:36:31;;;;;;;;;;;-1.10;99.90;;;;;;5076079;28;19912;-76
2023/03/02 06:38:56;;;;;;;;;;;-1.10;99.90;;;;;;5094583;28;19912;-77
2023/03/02 06:41:22;;;;;;;;;;;-1.10;99.90;;;;;;5094255;28;20007;-76
2023/03/02 06:43:47;;;;;;;;;;;-1.10;99.90;;;;;;5094323;28;19933;-77
2023/03/02 06:46:13;;;;;;;;;;;-1.00;99.90;;;;;;5094113;28;19913;-76
2023/03/02 06:48:39;;;;;;;;;;;-0.90;99.90;;;;;;5093904;28;19912;-77
2023/03/02 06:51:06;;;;;;;;;;;-0.80;99.90;;;;;;5094442;28;20011;-77
2023/03/02 06:53:32;;;;;;;;;;;-0.80;99.90;;;;;;5094088;28;19945;-76
2023/03/02 06:55:57;;;;;;;;;;;-0.70;99.90;;;;;;5075906;28;19939;-76
2023/03/02 06:58:23;;;;;;;;;;;-0.70;99.90;;;;;;5093882;28;19977;-76
2023/03/02 07:00:48;;;;;;;;;;;-0.60;99.90;;;;;;5094317;28;19912;-76
2023/03/02 07:03:14;;;;;;;;;;;-0.60;99.90;;;;;;5093980;28;19916;-76
2023/03/02 07:05:39;;;;;;;;;;;-0.50;99.90;;;;;;5093555;28;19916;-77
2023/03/02 07:08:05;;;;;;;;;;;-0.50;99.90;;;;;;5093906;28;19912;-76
2023/03/02 07:10:32;;;;;;;;;;;-0.50;99.90;;;;;;5093907;28;19915;-76
2023/03/02 07:12:57;;;;;;;;;;;-0.40;99.90;;;;;;5093865;28;19947;-76
2023/03/02 07:15:23;;;;;;;;;;;-0.40;99.90;;;;;;5094124;28;19916;-76
2023/03/02 07:17:48;;;;;;;;;;;-0.50;99.90;;;;;;5093828;28;20038;-76
2023/03/02 07:20:15;;;;;;;;;;;-0.40;99.90;;;;;;5093599;28;19916;-76
2023/03/02 07:22:41;;;;;;;;;;;-0.40;99.90;;;;;;5093748;28;19953;-76
2023/03/02 07:25:07;;;;;;;;;;;-0.30;99.90;;;;;;5075627;28;19912;-76
2023/03/02 07:27:32;;;;;;;;;;;-0.40;99.90;;;;;;5093641;28;19962;-76
2023/03/02 07:29:58;;;;;;;;;;;-0.40;99.90;;;;;;5093718;28;19918;-76
2023/03/02 07:32:24;;;;;;;;;;;-0.40;99.90;;;;;;5094018;28;19924;-76
2023/03/02 07:34:49;;;;;;;;;;;-0.40;99.90;;;;;;5093442;28;19915;-77
2023/03/02 07:37:15;;;;;;;;;;;-0.40;99.90;;;;;;5075505;28;19913;-76
2023/03/02 07:39:40;;;;;;;;;;;-0.40;99.90;;;;;;5093915;28;20003;-76
2023/03/02 07:42:07;;;;;;;;;;;-0.40;99.90;;;;;;5075625;28;19919;-76
2023/03/02 07:44:33;;;;;;;;;;;-0.40;99.90;;;;;;5093525;28;19999;-76
2023/03/02 07:47:00;;;;;;;;;;;-0.40;99.90;;;;;;5093525;28;20380;-76
2023/03/02 07:49:25;;;;;;;;;;;-0.30;99.90;;;;;;5093338;28;19912;-76
2023/03/02 07:51:51;;;;;;;;;;;-0.30;99.90;;;;;;5093535;28;20279;-76
2023/03/02 07:54:16;;;;;;;;;;;-0.30;99.90;;;;;;5094043;28;19919;-76
2023/03/02 07:56:42;;;;;;;;;;;-0.20;99.90;;;;;;5093346;28;19981;-76
2023/03/02 07:59:08;;;;;;;;;;;-0.20;99.90;;;;;;5093438;28;19955;-77
2023/03/02 08:01:33;;;;;;;;;;;-0.10;99.90;;;;;;5093464;28;20367;-76
2023/03/02 08:03:59;;;;;;;;;;;-0.10;99.90;;;;;;5093116;28;19912;-76
2023/03/02 08:06:24;;;;;;;;;;;-0.10;99.90;;;;;;5093353;28;20427;-76
2023/03/02 08:08:50;;;;;;;;;;;-0.10;99.90;;;;;;5093703;28;19912;-76
2023/03/02 08:11:16;;;;;;;;;;;-0.10;99.90;;;;;;5093773;28;19912;-76
2023/03/02 08:13:42;;;;;;;;;;;-0.10;99.90;;;;;;5079040;28;19912;-76
2023/03/02 08:16:09;;;;;;;;;;;0.00;99.90;;;;;;5097229;28;19919;-76
2023/03/02 08:18:36;;;;;;;;;;;0.00;99.90;;;;;;5096915;28;20007;-76
2023/03/02 08:21:01;;;;;;;;;;;0.00;99.90;;;;;;5121062;22;19931;-74
2023/03/02 08:23:27;;;;;;;;;;;0.10;99.90;;;;;;5097482;28;19912;-74
2023/03/02 08:25:53;;;;;;;;;;;0.20;99.90;;;;;;5097129;28;19916;-74
2023/03/02 08:28:19;;;;;;;;;;;0.30;99.90;;;;;;5096999;28;19914;-74
2023/03/02 08:30:53;;;;;;;;;;;0.40;99.90;;;;;;5096884;28;20020;-74
2023/03/02 08:33:18;;;;;;;;;;;0.50;99.90;;;;;;5096872;28;19912;-74
2023/03/02 08:35:52;;;;;;;;;;;0.70;99.90;;;;;;5096414;28;19978;-74
2023/03/02 08:38:18;;;;;;;;;;;0.80;99.90;;;;;;5096660;28;20432;-74
2023/03/02 08:40:43;;;;;;;;;;;0.80;99.90;;;;;;5096501;28;19948;-74
2023/03/02 08:43:09;;;;;;;;;;;0.90;99.90;;;;;;5096516;28;19913;-74
2023/03/02 08:45:34;;;;;;;;;;;0.90;99.90;;;;;;5096676;28;19916;-74
2023/03/02 08:48:00;;;;;;;;;;;1.00;99.90;;;;;;5096411;28;19912;-74
2023/03/02 08:50:25;;;;;;;;;;;1.10;99.90;;;;;;5096263;28;20391;-74
2023/03/02 08:52:51;;;;;;;;;;;1.20;99.90;;;;;;5096300;28;20295;-74
2023/03/02 08:55:17;;;;;;;;;;;1.20;99.90;;;;;;5096415;28;19912;-74
2023/03/02 08:57:42;;;;;;;;;;;1.20;99.90;;;;;;5096445;28;19955;-74
2023/03/02 09:00:13;;;;;;;;;;;1.30;99.90;;;;;;5096147;28;19909;-74
2023/03/02 09:02:39;;;;;;;;;;;1.40;99.90;;;;;;5096676;28;19993;-75
2023/03/02 09:05:04;;;;;;;;;;;1.40;99.90;;;;;;5095836;28;20366;-74
2023/03/02 09:07:30;;;;;;;;;;;1.40;99.90;;;;;;5096041;28;19978;-74
2023/03/02 09:09:56;;;;;;;;;;;1.40;99.90;;;;;;5096061;28;19916;-75
2023/03/02 09:12:21;;;;;;;;;;;1.40;99.90;;;;;;5078513;28;20419;-74
2023/03/02 09:14:47;;;;;;;;;;;1.40;99.90;;;;;;5096441;28;20377;-74
2023/03/02 09:17:14;;;;;;;;;;;1.40;99.90;;;;;;5095826;28;19919;-75
2023/03/02 09:19:40;;;;;;;;;;;1.50;99.90;;;;;;5095665;28;20367;-74
2023/03/02 09:22:07;;;;;;;;;;;1.40;99.90;;;;;;5077523;28;19971;-74
2023/03/02 09:24:33;;;;;;;;;;;1.40;99.90;;;;;;5094600;28;19912;-75
2023/03/02 09:26:59;;;;;;;;;;;1.30;99.90;;;;;;5095580;28;19958;-74
2023/03/02 09:29:25;;;;;;;;;;;1.40;99.90;;;;;;5095941;28;19924;-75
2023/03/02 09:31:50;;;;;;;;;;;1.50;99.90;;;;;;5077762;28;19912;-74
2023/03/02 09:34:16;;;;;;;;;;;1.50;99.90;;;;;;5095233;28;19919;-74
2023/03/02 09:36:41;;;;;;;;;;;1.70;99.90;;;;;;5077340;28;19931;-75
2023/03/02 09:39:11;;;;;;;;;;;1.90;99.90;;;;;;5077323;28;19912;-75
2023/03/02 09:41:55;;;;;;;;;;;2.10;99.90;;;;;;5095345;28;19912;-74
2023/03/02 09:44:41;;;;;;;;;;;2.20;99.90;;;;;;5095247;28;19965;-75
2023/03/02 09:47:15;;;;;;;;;;;2.40;99.90;;;;;;5095326;28;19908;-75
2023/03/02 09:49:59;;;;;;;;;;;2.60;99.90;;;;;;5076867;28;20356;-74
2023/03/02 09:52:34;;;;;;;;;;;2.80;99.90;;;;;;5095346;28;19965;-75
2023/03/02 09:55:16;;;;;;;;;;;3.00;99.90;;;;;;5095143;28;19908;-74
2023/03/02 09:57:42;;;;;;;;;;;3.20;99.90;;;;;;5095016;28;19908;-75
2023/03/02 10:00:13;;;;;;;;;;;3.30;99.90;;;;;;5095306;28;19908;-75
2023/03/02 10:02:48;;;;;;;;;;;3.40;99.90;;;;;;5094981;28;19962;-74
2023/03/02 10:05:24;;;;;;;;;;;3.60;99.90;;;;;;5076517;28;19912;-75
2023/03/02 10:07:49;;;;;;;;;;;3.80;99.90;;;;;;5095464;28;19916;-75
2023/03/02 10:10:33;;;;;;;;;;;3.90;99.90;;;;;;5076628;28;19916;-74
2023/03/02 10:13:08;;;;;;;;;;;4.00;99.90;;;;;;5076673;28;19926;-75
2023/03/02 10:15:38;;;;;;;;;;;4.10;99.90;;;;;;5095413;28;19935;-75
2023/03/02 10:18:13;;;;;;;;;;;4.20;99.90;;;;;;5094795;28;20363;-74
2023/03/02 10:20:50;;;;;;;;;;;4.30;99.90;;;;;;5094317;28;19912;-75
2023/03/02 10:23:22;;;;;;;;;;;4.40;99.90;;;;;;5094666;28;20260;-75
2023/03/02 10:26:04;;;;;;;;;;;4.50;99.90;;;;;;5095208;28;20015;-75
2023/03/02 10:28:37;;;;;;;;;;;4.60;99.90;;;;;;5094719;28;19914;-75
2023/03/02 10:31:05;;;;;;;;;;;4.90;99.90;;;;;;5076349;28;20282;-74
2023/03/02 10:33:32;;;;;;;;;;;5.10;99.90;;;;;;5095113;28;19908;-74
2023/03/02 10:35:59;;;;;;;;;;;5.30;99.90;;;;;;5093894;28;19916;-74
2023/03/02 10:38:27;;;;;;;;;;;5.50;99.90;;;;;;5094381;28;19908;-75
2023/03/02 10:40:58;;;;;;;;;;;5.70;99.90;;;;;;5094308;28;19908;-76
2023/03/02 10:43:35;;;;;;;;;;;5.90;99.90;;;;;;5094260;28;19908;-75
2023/03/02 10:46:06;;;;;;;;;;;6.00;99.90;;;;;;5094150;28;19935;-75
2023/03/02 10:48:32;;;;;;;;;;;6.10;99.90;;;;;;5094548;28;20046;-75
2023/03/02 10:50:59;;;;;;;;;;;6.20;99.90;;;;;;5093849;28;19951;-75
2023/03/02 10:53:24;;;;;;;;;;;6.20;99.90;;;;;;5076040;28;19951;-74
2023/03/02 10:55:51;;;;;;;;;;;6.40;99.90;;;;;;5094376;28;19919;-74
2023/03/02 10:58:30;;;;;;;;;;;6.50;99.90;;;;;;5094056;28;19957;-74
2023/03/02 11:01:00;;;;;;;;;;;6.60;99.90;;;;;;5093942;28;19919;-74
2023/03/02 11:03:26;;;;;;;;;;;6.70;99.90;;;;;;5094013;28;19912;-75
2023/03/02 11:05:52;;;;;;;;;;;6.90;99.90;;;;;;5093755;28;19913;-74
2023/03/02 11:08:21;;;;;;;;;;;7.00;99.90;;;;;;5076029;28;19913;-74
2023/03/02 11:11:02;;;;;;;;;;;7.10;99.90;;;;;;5093882;28;20003;-74
2023/03/02 11:13:37;;;;;;;;;;;7.00;99.90;;;;;;5094557;28;20356;-74
2023/03/02 11:16:22;;;;;;;;;;;7.00;99.90;;;;;;5093905;28;19909;-74
2023/03/02 11:18:53;;;;;;;;;;;7.00;99.90;;;;;;5076226;28;20279;-74
2023/03/02 11:21:31;;;;;;;;;;;6.90;99.90;;;;;;5093504;28;20319;-74
2023/03/02 11:24:17;;;;;;;;;;;6.90;99.90;;;;;;5093822;28;20280;-75
2023/03/02 11:26:49;;;;;;;;;;;6.80;99.90;;;;;;5092928;28;20011;-74
2023/03/02 11:29:32;;;;;;;;;;;6.80;99.90;;;;;;5075596;28;19951;-75
2023/03/02 11:32:07;;;;;;;;;;;6.90;99.90;;;;;;5093690;28;19908;-74
2023/03/02 11:34:38;;;;;;;;;;;7.00;99.90;;;;;;5093457;28;19908;-74
2023/03/02 11:37:16;;;;;;;;;;;7.10;99.90;;;;;;5093749;28;19911;-75
2023/03/02 11:39:47;;;;;;;;;;;7.10;99.90;;;;;;5093695;28;20295;-75
2023/03/02 11:42:20;;;;;;;;;;;7.10;99.90;;;;;;5093639;28;19908;-75
2023/03/02 11:44:47;;;;;;;;;;;7.10;99.90;;;;;;5075408;28;19920;-76
2023/03/02 11:47:13;;;;;;;;;;;7.10;99.90;;;;;;5079168;28;19909;-79
2023/03/02 11:49:42;;;;;;;;;;;7.10;99.90;;;;;;5062894;28;19934;-74
2023/03/02 11:52:15;;;;;;;;;;;7.20;99.90;;;;;;5097320;28;19912;-75
2023/03/02 11:54:45;;;;;;;;;;;7.40;99.90;;;;;;5079519;28;19915;-78
2023/03/02 11:57:17;;;;;;;;;;;7.50;99.90;;;;;;5100070;28;19908;-79
2023/03/02 11:59:43;;;;;;;;;;;7.60;99.90;;;;;;5081992;28;19976;-78
2023/03/02 12:02:10;;;;;;;;;;;7.70;99.90;;;;;;5099685;28;20011;-78
2023/03/02 12:04:36;;;;;;;;;;;7.80;99.90;;;;;;5099796;28;19920;-79
2023/03/02 12:07:14;;;;;;;;;;;8.00;99.90;;;;;;5082141;28;19908;-78
2023/03/02 12:09:41;;;;;;;;;;;8.20;99.90;;;;;;5083916;28;19908;-79
2023/03/02 12:12:22;;;;;;;;;;;8.30;99.90;;;;;;5101543;28;19916;-79
2023/03/02 12:14:48;;;;;;;;;;;8.40;99.90;;;;;;5098790;28;20354;-79
2023/03/02 12:17:25;;;;;;;;;;;8.50;99.90;;;;;;5063835;28;19938;-78
2023/03/02 12:20:06;;;;;;;;;;;8.50;99.90;;;;;;5099457;28;19943;-78
2023/03/02 12:22:32;;;;;;;;;;;8.60;99.90;;;;;;5099380;28;19916;-78
2023/03/02 12:25:04;;;;;;;;;;;8.80;99.90;;;;;;5081959;28;19916;-78
2023/03/02 12:27:37;;;;;;;;;;;8.90;99.90;;;;;;5076164;28;19965;-78
2023/03/02 12:30:15;;;;;;;;;;;9.00;99.90;;;;;;5097166;28;20331;-77
2023/03/02 12:32:46;;;;;;;;;;;9.00;99.90;;;;;;5098637;28;19908;-78
2023/03/02 12:35:13;;;;;;;;;;;9.10;99.90;;;;;;5098742;28;19954;-79
2023/03/02 12:37:41;;;;;;;;;;;9.20;99.90;;;;;;5081164;28;20446;-79
2023/03/02 12:40:07;;;;;;;;;;;9.30;99.90;;;;;;5081224;28;19923;-79
2023/03/02 12:42:32;;;;;;;;;;;9.30;99.90;;;;;;5081534;28;20283;-79
2023/03/02 12:44:58;;;;;;;;;;;9.40;99.90;;;;;;5081568;28;19912;-79
2023/03/02 12:47:28;;;;;;;;;;;9.60;99.90;;;;;;5082184;28;19908;-79
2023/03/02 12:49:59;;;;;;;;;;;9.80;99.90;;;;;;5099944;28;19908;-79
2023/03/02 12:52:32;;;;;;;;;;;9.90;99.90;;;;;;5100502;28;19908;-80
2023/03/02 12:55:17;;;;;;;;;;;10.00;99.90;;;;;;5100392;28;19908;-80
2023/03/02 12:57:48;;;;;;;;;;;10.10;99.90;;;;;;5100391;28;19958;-79
2023/03/02 13:00:18;;;;;;;;;;;10.20;99.90;;;;;;5100165;28;19908;-79
2023/03/02 13:02:46;;;;;;;;;;;10.40;99.90;;;;;;5082766;28;19912;-80
2023/03/02 13:05:16;;;;;;;;;;;10.50;99.90;;;;;;5082118;28;19981;-80
2023/03/02 13:07:43;;;;;;;;;;;10.50;99.90;;;;;;5082536;28;19908;-80
2023/03/02 13:10:25;;;;;;;;;;;10.60;99.90;;;;;;5082003;28;19979;-80
2023/03/02 13:12:51;;;;;;;;;;;10.70;99.90;;;;;;5082285;28;19962;-79
2023/03/02 13:15:17;;;;;;;;;;;10.70;99.90;;;;;;5082314;28;19912;-80
2023/03/02 13:17:43;;;;;;;;;;;10.60;99.90;;;;;;5100538;28;19915;-80
2023/03/02 13:20:11;;;;;;;;;;;10.50;99.90;;;;;;5099924;28;19908;-80
2023/03/02 13:22:37;;;;;;;;;;;10.30;99.90;;;;;;5100376;28;19916;-80
2023/03/02 13:25:06;;;;;;;;;;;10.20;99.90;;;;;;5083057;28;19916;-80
2023/03/02 13:27:33;;;;;;;;;;;10.10;99.90;;;;;;5100077;28;19934;-80
2023/03/02 13:30:20;;;;;;;;;;;10.00;99.90;;;;;;5082105;28;19912;-80
2023/03/02 13:32:46;;;;;;;;;;;9.90;99.90;;;;;;5082116;28;19912;-80
2023/03/02 13:35:17;;;;;;;;;;;9.80;99.90;;;;;;5064833;28;19912;-80
2023/03/02 13:37:43;;;;;;;;;;;9.90;99.90;;;;;;5100597;28;19915;-80
2023/03/02 13:40:20;;;;;;;;;;;9.80;99.90;;;;;;5099010;28;19912;-77
2023/03/02 13:42:46;;;;;;;;;;;9.90;99.90;;;;;;5095204;28;20431;-76
2023/03/02 13:45:14;;;;;;;;;;;10.00;99.90;;;;;;5095997;28;20030;-76
2023/03/02 13:47:42;;;;;;;;;;;10.00;99.90;;;;;;5095189;28;19915;-76
2023/03/02 13:50:08;;;;;;;;;;;10.00;99.90;;;;;;5094953;28;19913;-76
2023/03/02 13:52:34;;;;;;;;;;;10.20;99.90;;;;;;5094627;28;19933;-76
2023/03/02 13:55:00;;;;;;;;;;;10.30;99.90;;;;;;5060340;28;20003;-77
2023/03/02 13:57:30;;;;;;;;;;;10.40;99.90;;;;;;5095091;28;19922;-76
2023/03/02 13:59:56;;;;;;;;;;;10.50;99.90;;;;;;5095094;28;19909;-77
2023/03/02 14:02:26;;;;;;;;;;;10.50;99.90;;;;;;5095248;28;19908;-76
2023/03/02 14:04:52;;;;;;;;;;;10.50;99.90;;;;;;5094958;28;20278;-76
2023/03/02 14:07:18;;;;;;;;;;;10.50;99.90;;;;;;5094964;28;20002;-77
2023/03/02 14:09:44;;;;;;;;;;;10.50;99.90;;;;;;5094248;28;19958;-76
2023/03/02 14:12:16;;;;;;;;;;;10.60;99.90;;;;;;5094803;28;19920;-76
2023/03/02 14:14:42;;;;;;;;;;;10.70;99.90;;;;;;5094866;28;20015;-76
2023/03/02 14:17:12;;;;;;;;;;;10.80;99.90;;;;;;5095050;28;20379;-77
2023/03/02 14:19:38;;;;;;;;;;;11.00;99.50;;;;;;5094729;28;19908;-77
2023/03/02 14:22:03;;;;;;;;;;;11.20;99.60;;;;;;5094797;28;20379;-76
2023/03/02 14:24:29;;;;;;;;;;;11.40;97.80;;;;;;5076493;28;20332;-76
2023/03/02 14:26:54;;;;;;;;;;;11.50;96.50;;;;;;5094597;28;19971;-76
2023/03/02 14:29:37;;;;;;;;;;;11.60;97.60;;;;;;5094537;28;19916;-76